JRF weather

Kalaeloa Airport
Kapolei, Hawaii, United States

Public forecast

Using degrees Fahrenheit for public forecast. Weather courtesy of forecast.io.

METAR (pilot weather report)

Retrieved 2019/04/22 02:53 UTC (52 minutes ago):

PHJR 220253Z 04007KT 010V080 10SM CLR 28/17 A3010 RMK AO2 SLP200 T02830172 56009

TAF (pilot weather forecast)

Forecast is more than 12 hours old.

Retrieved 2019/04/21 00:58 UTC (1 day ago):

TAF PHJR 212343Z 2200/2224 10010G15KT P6SM FEW025 SCT035 FM220500 05005KT P6SM FEW035 SCT045 FM222000 10010G15KT P6SM FEW025 SCT035